Time;durP1;ratioP1;P1;durP2;ratioP2;P2;SDS_P1;SDS_P2;PMS_P1;PMS_P2;Temp;Humidity;BMP_temperature;BMP_pressure;BME280_temperature;BME280_humidity;BME280_pressure;Samples;Min_cycle;Max_cycle;Signal;HPM_P1;HPM_P2
2021/11/10 00:00:26;;;;;;;45.80;12.80;;;;;;;8.98;100.00;102568.25;4990627;28;20054;-75
2021/11/10 00:02:54;;;;;;;33.70;12.55;;;;;;;8.99;100.00;102567.38;4998854;28;20044;-75
2021/11/10 00:05:23;;;;;;;33.47;12.20;;;;;;;8.96;100.00;102570.91;4990689;28;20101;-76
2021/11/10 00:07:51;;;;;;;39.22;13.52;;;;;;;8.95;100.00;102573.56;4997035;28;20581;-75
2021/11/10 00:10:19;;;;;;;32.30;12.70;;;;;;;8.92;100.00;102566.50;4992608;28;20054;-74
2021/11/10 00:12:47;;;;;;;31.30;11.63;;;;;;;8.93;100.00;102573.56;4995370;28;20426;-75
2021/11/10 00:15:17;;;;;;;31.95;11.38;;;;;;;8.97;100.00;102572.72;4997846;28;20406;-75
2021/11/10 00:17:44;;;;;;;30.20;12.30;;;;;;;8.95;100.00;102571.78;4993510;28;20057;-75
2021/11/10 00:20:12;;;;;;;33.03;12.48;;;;;;;8.92;100.00;102566.50;4998293;28;20141;-74
2021/11/10 00:22:41;;;;;;;30.25;13.18;;;;;;;8.89;100.00;102563.81;4991185;28;20085;-74
2021/11/10 00:25:12;;;;;;;35.45;13.13;;;;;;;8.89;100.00;102561.16;4998275;28;20084;-74
2021/11/10 00:27:40;;;;;;;33.83;13.63;;;;;;;8.89;100.00;102553.16;4993670;28;20050;-74
2021/11/10 00:30:09;;;;;;;31.05;12.85;;;;;;;8.88;100.00;102554.03;4990487;28;20072;-76
2021/11/10 00:32:38;;;;;;;30.42;13.18;;;;;;;8.88;100.00;102554.03;4995685;28;20052;-76
2021/11/10 00:35:07;;;;;;;33.00;13.25;;;;;;;8.87;100.00;102549.63;4990960;28;20081;-75
2021/11/10 00:37:38;;;;;;;38.33;13.88;;;;;;;8.85;100.00;102543.38;4998267;28;20049;-75
2021/11/10 00:40:07;;;;;;;39.65;13.55;;;;;;;8.87;100.00;102554.03;4989906;28;20085;-75
2021/11/10 00:42:35;;;;;;;39.60;14.73;;;;;;;8.85;100.00;102548.69;4988820;28;20052;-75
2021/11/10 00:45:03;;;;;;;38.00;14.27;;;;;;;8.85;100.00;102545.16;4997644;28;20053;-75
2021/11/10 00:47:31;;;;;;;29.85;12.73;;;;;;;8.86;100.00;102544.28;4989923;28;20145;-75
2021/11/10 00:50:02;;;;;;;34.33;14.13;;;;;;;8.87;100.00;102532.72;5001969;28;20061;-75
2021/11/10 00:52:30;;;;;;;32.30;14.80;;;;;;;8.88;100.00;102524.75;4994856;28;20053;-75
2021/11/10 00:54:58;;;;;;;40.47;15.27;;;;;;;8.88;100.00;102524.75;4999697;28;20053;-74
2021/11/10 00:57:27;;;;;;;32.00;14.15;;;;;;;8.87;100.00;102527.41;4994774;28;20115;-75
2021/11/10 00:59:55;;;;;;;41.50;14.75;;;;;;;8.84;100.00;102522.97;4995489;28;20057;-75
2021/11/10 01:02:23;;;;;;;50.63;17.77;;;;;;;8.87;100.00;102522.09;5000359;28;20077;-75
2021/11/10 01:04:51;;;;;;;49.33;19.65;;;;;;;8.84;100.00;102528.31;4995127;28;20045;-76
2021/11/10 01:07:20;;;;;;;54.35;18.30;;;;;;;8.82;100.00;102522.09;4999512;28;20060;-76
2021/11/10 01:09:54;;;;;;;46.95;16.65;;;;;;;8.81;100.00;102514.97;4991923;28;20515;-76
2021/11/10 01:12:22;;;;;;;50.40;18.20;;;;;;;8.81;100.00;102507.00;4999177;28;20113;-75
2021/11/10 01:14:50;;;;;;;50.10;19.15;;;;;;;8.81;100.00;102503.47;4995864;28;20062;-75
2021/11/10 01:17:18;;;;;;;50.38;18.25;;;;;;;8.78;100.00;102504.31;4994906;28;20149;-74
2021/11/10 01:19:46;;;;;;;53.03;19.10;;;;;;;8.78;100.00;102502.56;4999643;28;20058;-76
2021/11/10 01:22:13;;;;;;;51.05;18.38;;;;;;;8.78;100.00;102493.69;4993015;28;20049;-70
2021/11/10 01:24:43;;;;;;;47.97;18.42;;;;;;;8.76;100.00;102501.66;4999214;28;20508;-69
2021/11/10 01:27:11;;;;;;;57.30;19.30;;;;;;;8.75;100.00;102491.00;4992876;28;20084;-68
2021/11/10 01:29:40;;;;;;;55.45;18.65;;;;;;;8.73;100.00;102496.31;4992705;28;20072;-68
2021/11/10 01:32:09;;;;;;;53.50;16.67;;;;;;;8.72;100.00;102483.91;5000667;28;20124;-68
2021/11/10 01:34:37;;;;;;;54.42;18.05;;;;;;;8.74;100.00;102483.94;4992902;28;20089;-69
2021/11/10 01:37:06;;;;;;;51.67;18.27;;;;;;;8.73;100.00;102477.69;5001726;28;20104;-69
2021/11/10 01:39:34;;;;;;;54.90;17.50;;;;;;;8.73;100.00;102469.72;4994051;28;20050;-68
2021/11/10 01:42:07;;;;;;;54.03;19.45;;;;;;;8.71;100.00;102451.97;4998504;28;20053;-69
2021/11/10 01:44:37;;;;;;;49.75;17.23;;;;;;;8.69;100.00;102448.44;4997085;28;20049;-68
2021/11/10 01:47:07;;;;;;;57.17;18.58;;;;;;;8.67;100.00;102439.56;4993738;28;20249;-69
2021/11/10 01:49:35;;;;;;;62.60;17.52;;;;;;;8.61;100.00;102437.75;4997651;28;20082;-68
2021/11/10 01:52:06;;;;;;;59.90;18.85;;;;;;;8.58;100.00;102436.00;4995261;28;20049;-69
2021/11/10 01:54:35;;;;;;;47.08;17.35;;;;;;;8.58;100.00;102443.06;4997921;28;20129;-68
2021/11/10 01:57:05;;;;;;;57.40;19.40;;;;;;;8.59;100.00;102429.78;4991676;28;20054;-68
2021/11/10 01:59:38;;;;;;;59.15;18.73;;;;;;;8.61;100.00;102432.44;4991084;28;20054;-69
2021/11/10 02:02:08;;;;;;;55.33;18.73;;;;;;;8.59;100.00;102431.56;4998333;28;20050;-68
2021/11/10 02:04:38;;;;;;;52.53;18.02;;;;;;;8.58;100.00;102413.81;4992969;28;20101;-68
2021/11/10 02:07:07;;;;;;;51.33;19.10;;;;;;;8.56;100.00;102416.50;4998380;28;20056;-68
2021/11/10 02:09:35;;;;;;;52.47;16.95;;;;;;;8.54;100.00;102412.91;4992791;28;20060;-68
2021/11/10 02:12:05;;;;;;;52.30;18.20;;;;;;;8.54;100.00;102420.03;4990759;28;20188;-75
2021/11/10 02:14:34;;;;;;;57.33;18.52;;;;;;;8.52;100.00;102413.81;4999240;28;20551;-75
2021/11/10 02:17:04;;;;;;;57.47;18.70;;;;;;;8.53;100.00;102412.91;4993297;28;20072;-75
2021/11/10 02:19:34;;;;;;;59.13;20.92;;;;;;;8.52;100.00;102412.03;4996371;28;20104;-75
2021/11/10 02:22:04;;;;;;;55.83;19.25;;;;;;;8.51;100.00;102415.59;4993457;28;20058;-75
2021/11/10 02:24:33;;;;;;;52.88;17.98;;;;;;;8.54;100.00;102426.22;4996424;28;20116;-75
2021/11/10 02:27:02;;;;;;;54.28;18.80;;;;;;;8.54;100.00;102434.19;5000775;28;20200;-75
2021/11/10 02:29:32;;;;;;;47.25;18.27;;;;;;;8.55;100.00;102441.31;4991446;28;20056;-75
2021/11/10 02:32:02;;;;;;;51.30;17.67;;;;;;;8.57;100.00;102434.22;4998582;28;20045;-75
2021/11/10 02:34:29;;;;;;;53.72;18.13;;;;;;;8.58;100.00;102443.06;4991144;28;20058;-75
2021/11/10 02:36:58;;;;;;;55.50;17.52;;;;;;;8.57;100.00;102443.97;4998281;28;20073;-75
2021/11/10 02:39:28;;;;;;;54.05;18.13;;;;;;;8.60;100.00;102444.88;4993575;28;20050;-75
2021/11/10 02:41:57;;;;;;;51.90;17.60;;;;;;;8.59;100.00;102445.75;4998587;28;20104;-69
2021/11/10 02:44:25;;;;;;;52.60;17.70;;;;;;;8.61;100.00;102435.09;4994621;28;20073;-69
2021/11/10 02:46:53;;;;;;;62.60;18.75;;;;;;;8.61;100.00;102432.44;4993548;28;20132;-68
2021/11/10 02:49:28;;;;;;;46.05;17.15;;;;;;;8.62;100.00;102428.03;4997963;28;20072;-68
2021/11/10 02:51:59;;;;;;;51.00;18.23;;;;;;;8.60;100.00;102420.03;4990501;28;20057;-68
2021/11/10 02:54:31;;;;;;;60.95;19.80;;;;;;;8.58;100.00;102412.06;4991458;28;20434;-67
2021/11/10 02:57:03;;;;;;;47.95;17.13;;;;;;;8.60;100.00;102412.94;5001644;28;20115;-68
2021/11/10 02:59:32;;;;;;;48.42;17.00;;;;;;;8.62;100.00;102409.41;4990756;28;20093;-67
2021/11/10 03:02:03;;;;;;;48.55;18.35;;;;;;;8.59;100.00;102407.59;4997750;28;20108;-68
2021/11/10 03:04:33;;;;;;;46.13;16.65;;;;;;;8.59;100.00;102411.16;4993868;28;20256;-68
2021/11/10 03:07:03;;;;;;;51.70;17.25;;;;;;;8.59;100.00;102412.94;4997573;28;20112;-68
2021/11/10 03:09:34;;;;;;;45.42;16.05;;;;;;;8.60;100.00;102404.06;4993465;28;20824;-68
2021/11/10 03:12:05;;;;;;;46.42;16.35;;;;;;;8.58;100.00;102409.41;4989710;28;20426;-68
2021/11/10 03:14:34;;;;;;;40.30;14.30;;;;;;;8.59;100.00;102405.81;4997925;28;20077;-68
2021/11/10 03:17:05;;;;;;;43.75;15.82;;;;;;;8.58;100.00;102404.06;4991268;28;20092;-68
2021/11/10 03:19:33;;;;;;;41.22;15.80;;;;;;;8.55;100.00;102412.03;4999736;28;20046;-68
2021/11/10 03:22:06;;;;;;;47.15;15.57;;;;;;;8.52;100.00;102404.06;4991460;28;20506;-68
2021/11/10 03:24:35;;;;;;;41.05;14.20;;;;;;;8.50;100.00;102396.97;4995525;28;20042;-68
2021/11/10 03:27:03;;;;;;;44.45;16.42;;;;;;;8.51;100.00;102398.72;4998407;28;20179;-74
2021/11/10 03:29:34;;;;;;;44.15;16.50;;;;;;;8.49;100.00;102412.03;4991998;28;20242;-75
2021/11/10 03:32:04;;;;;;;39.75;13.88;;;;;;;8.50;100.00;102418.25;4996934;28;20046;-75
2021/11/10 03:34:33;;;;;;;41.53;14.38;;;;;;;8.48;100.00;102418.25;4991666;28;20390;-74
2021/11/10 03:37:03;;;;;;;43.72;14.95;;;;;;;8.47;100.00;102416.47;4997064;28;20042;-74
2021/11/10 03:39:32;;;;;;;35.05;13.77;;;;;;;8.46;100.00;102417.34;4991957;28;20054;-75
2021/11/10 03:42:02;;;;;;;36.10;14.13;;;;;;;8.45;100.00;102428.88;4988280;28;20710;-75
2021/11/10 03:44:30;;;;;;;37.78;14.07;;;;;;;8.44;100.00;102416.44;5000003;28;20528;-75
2021/11/10 03:46:59;;;;;;;38.92;13.57;;;;;;;8.45;100.00;102425.34;4991838;28;20062;-75
2021/11/10 03:49:27;;;;;;;34.60;13.57;;;;;;;8.45;100.00;102415.56;4995350;28;20285;-75
2021/11/10 03:51:55;;;;;;;37.67;14.45;;;;;;;8.45;100.00;102420.91;4993092;28;20167;-75
2021/11/10 03:54:23;;;;;;;32.40;12.50;;;;;;;8.45;100.00;102412.91;4989314;28;21600;-75
2021/11/10 03:56:51;;;;;;;35.47;13.15;;;;;;;8.45;100.00;102422.69;4992243;28;20135;-75
2021/11/10 03:59:20;;;;;;;30.70;12.75;;;;;;;8.43;100.00;102417.34;4994277;28;20088;-75
2021/11/10 04:01:48;;;;;;;30.30;12.75;;;;;;;8.45;100.00;102412.03;4994433;28;20122;-75
2021/11/10 04:04:16;;;;;;;34.67;12.65;;;;;;;8.45;100.00;102420.00;4995381;28;20077;-75
2021/11/10 04:06:44;;;;;;;29.23;11.48;;;;;;;8.46;100.00;102427.09;4997681;28;20250;-74
2021/11/10 04:09:12;;;;;;;32.30;13.55;;;;;;;8.44;100.00;102431.53;4993173;28;20052;-68
2021/11/10 04:11:40;;;;;;;35.72;14.27;;;;;;;8.43;100.00;102430.66;4993701;28;20054;-68
2021/11/10 04:14:08;;;;;;;35.47;13.20;;;;;;;8.43;100.00;102427.06;4998021;28;20045;-68
2021/11/10 04:16:37;;;;;;;28.17;12.43;;;;;;;8.43;100.00;102433.31;4997419;28;20059;-68
2021/11/10 04:19:06;;;;;;;31.80;12.07;;;;;;;8.43;100.00;102429.75;4995355;28;20057;-68
2021/11/10 04:21:34;;;;;;;29.90;12.27;;;;;;;8.43;100.00;102433.31;4992525;28;20054;-68
2021/11/10 04:24:02;;;;;;;29.77;12.48;;;;;;;8.43;100.00;102429.75;4997298;28;20046;-68
2021/11/10 04:26:36;;;;;;;28.42;11.35;;;;;;;8.44;100.00;102428.88;4993434;28;20045;-75
2021/11/10 04:29:05;;;;;;;38.97;12.85;;;;;;;8.44;100.00;102432.41;5000127;28;20058;-74
2021/11/10 04:31:34;;;;;;;31.73;13.35;;;;;;;8.42;100.00;102434.16;4994979;28;20058;-75
2021/11/10 04:34:05;;;;;;;32.67;12.80;;;;;;;8.43;100.00;102441.28;4999723;28;20438;-76
2021/11/10 04:36:34;;;;;;;31.75;11.05;;;;;;;8.42;100.00;102436.81;4995635;28;20072;-75
2021/11/10 04:39:02;;;;;;;27.75;12.05;;;;;;;8.43;100.00;102438.63;4997816;28;20053;-75
2021/11/10 04:41:30;;;;;;;28.05;12.05;;;;;;;8.41;100.00;102441.25;4993649;28;20100;-75
2021/11/10 04:43:58;;;;;;;27.85;13.02;;;;;;;8.40;100.00;102435.94;4999034;28;20097;-75
2021/11/10 04:46:30;;;;;;;27.60;11.48;;;;;;;8.41;100.00;102443.91;4994648;28;20048;-75
2021/11/10 04:48:57;;;;;;;23.33;10.73;;;;;;;8.42;100.00;102444.78;4995685;28;20045;-75
2021/11/10 04:51:29;;;;;;;27.55;11.27;;;;;;;8.39;100.00;102444.78;4995225;28;20077;-75
2021/11/10 04:53:58;;;;;;;31.38;11.27;;;;;;;8.39;100.00;102440.38;4991727;28;21828;-76
2021/11/10 04:56:27;;;;;;;32.05;11.30;;;;;;;8.38;100.00;102445.69;4995714;28;20408;-75
2021/11/10 04:58:55;;;;;;;24.17;10.80;;;;;;;8.38;100.00;102448.34;4991930;28;20250;-75
2021/11/10 05:01:26;;;;;;;27.92;11.75;;;;;;;8.36;100.00;102439.44;4997811;28;20058;-75
2021/11/10 05:03:54;;;;;;;29.33;11.43;;;;;;;8.36;100.00;102437.69;4989894;28;20600;-76
2021/11/10 05:06:24;;;;;;;29.30;10.93;;;;;;;8.37;100.00;102434.13;4994068;28;21563;-75
2021/11/10 05:08:53;;;;;;;26.55;11.55;;;;;;;8.34;100.00;102435.91;4991240;28;20302;-75
2021/11/10 05:11:22;;;;;;;23.98;10.48;;;;;;;8.36;100.00;102432.38;4993058;28;20056;-75
2021/11/10 05:13:50;;;;;;;30.25;11.55;;;;;;;8.36;100.00;102435.03;4992382;28;20054;-75
2021/11/10 05:16:19;;;;;;;22.90;11.23;;;;;;;8.35;100.00;102433.25;4992486;28;20100;-75
2021/11/10 05:18:48;;;;;;;25.58;10.48;;;;;;;8.35;100.00;102432.38;4996489;28;20137;-75
2021/11/10 05:21:21;;;;;;;27.52;11.93;;;;;;;8.30;100.00;102419.03;4991015;28;20089;-75
2021/11/10 05:23:48;;;;;;;30.38;11.30;;;;;;;8.31;100.00;102419.94;4995341;28;20132;-75
2021/11/10 05:26:18;;;;;;;26.38;11.73;;;;;;;8.23;100.00;102415.47;4994457;28;20064;-75
2021/11/10 05:28:46;;;;;;;26.63;11.48;;;;;;;8.22;100.00;102426.13;4995056;28;20050;-75
2021/11/10 05:31:14;;;;;;;29.45;11.07;;;;;;;8.21;100.00;102430.56;4995200;28;20049;-75
2021/11/10 05:33:42;;;;;;;28.02;12.40;;;;;;;8.21;100.00;102425.22;4995726;28;20076;-75
2021/11/10 05:36:10;;;;;;;22.88;10.38;;;;;;;8.22;100.00;102428.78;4995106;28;20069;-76
2021/11/10 05:38:38;;;;;;;28.58;11.18;;;;;;;8.20;100.00;102431.41;5000915;28;20108;-75
2021/11/10 05:41:06;;;;;;;25.10;10.93;;;;;;;8.21;100.00;102427.00;4996455;28;20052;-75
2021/11/10 05:43:37;;;;;;;23.05;11.18;;;;;;;8.19;100.00;102437.63;4997647;28;20773;-75
2021/11/10 05:46:05;;;;;;;24.25;10.07;;;;;;;8.20;100.00;102436.75;5000466;28;20486;-75
2021/11/10 05:48:34;;;;;;;19.70;10.77;;;;;;;8.19;100.00;102434.97;4996341;28;20054;-75
2021/11/10 05:51:02;;;;;;;27.38;11.23;;;;;;;8.17;100.00;102441.16;4999867;28;20080;-75
2021/11/10 05:53:32;;;;;;;25.67;11.23;;;;;;;8.16;100.00;102448.25;4996380;28;20411;-75
2021/11/10 05:56:01;;;;;;;33.53;12.13;;;;;;;8.14;100.00;102450.03;4999184;28;20042;-75
2021/11/10 05:58:32;;;;;;;29.45;10.77;;;;;;;8.15;100.00;102443.81;4997854;28;20050;-75
2021/11/10 06:01:02;;;;;;;27.00;12.40;;;;;;;8.09;100.00;102435.84;4998856;28;20049;-75
2021/11/10 06:03:32;;;;;;;30.40;11.73;;;;;;;8.04;100.00;102435.81;4996681;28;20047;-75
2021/11/10 06:06:00;;;;;;;27.45;12.38;;;;;;;8.03;100.00;102452.63;4999489;28;20451;-75
2021/11/10 06:08:28;;;;;;;31.02;12.90;;;;;;;8.02;100.00;102444.69;4998038;28;20081;-75
2021/11/10 06:11:07;;;;;;;38.47;13.50;;;;;;;8.00;100.00;102446.41;4994083;28;20150;-75
2021/11/10 06:13:36;;;;;;;33.13;13.65;;;;;;;7.97;100.00;102446.44;5003095;28;20140;-75
2021/11/10 06:16:07;;;;;;;29.50;14.13;;;;;;;7.94;100.00;102441.09;4997485;28;20049;-76
2021/11/10 06:18:35;;;;;;;30.08;12.27;;;;;;;7.94;100.00;102441.09;5001453;28;20162;-75
2021/11/10 06:21:05;;;;;;;32.97;13.65;;;;;;;7.94;100.00;102446.41;4994132;28;20541;-75
2021/11/10 06:23:34;;;;;;;36.22;12.98;;;;;;;7.93;100.00;102448.16;4999449;28;20584;-75
2021/11/10 06:26:02;;;;;;;31.73;13.50;;;;;;;7.92;100.00;102449.06;4996072;28;20342;-75
2021/11/10 06:28:30;;;;;;;31.70;13.65;;;;;;;7.93;100.00;102461.44;4998160;28;20117;-75
2021/11/10 06:30:58;;;;;;;34.45;13.00;;;;;;;7.89;100.00;102461.44;4995096;28;20108;-75
2021/11/10 06:33:30;;;;;;;26.52;12.90;;;;;;;7.82;100.00;102450.78;4996850;28;20053;-69
2021/11/10 06:35:58;;;;;;;27.20;12.32;;;;;;;7.85;100.00;102457.88;4986003;28;20241;-68
2021/11/10 06:38:26;;;;;;;25.80;13.52;;;;;;;7.82;100.00;102471.16;4997660;28;20525;-69
2021/11/10 06:40:54;;;;;;;31.60;12.68;;;;;;;7.78;100.00;102469.34;4993933;28;20443;-69
2021/11/10 06:43:25;;;;;;;24.95;13.02;;;;;;;7.75;100.00;102464.91;4992503;28;20092;-70
2021/11/10 06:45:53;;;;;;;34.17;13.70;;;;;;;7.75;100.00;102462.25;4997171;28;20084;-70
2021/11/10 06:48:21;;;;;;;29.15;13.70;;;;;;;7.72;100.00;102458.69;4997928;28;20494;-69
2021/11/10 06:50:50;;;;;;;34.15;13.75;;;;;;;7.72;100.00;102462.22;4997553;28;20553;-75
2021/11/10 06:53:18;;;;;;;33.42;13.60;;;;;;;7.66;100.00;102460.44;4995064;28;20061;-75
2021/11/10 06:55:46;;;;;;;29.20;13.95;;;;;;;7.72;100.00;102462.22;4995881;28;20092;-75
2021/11/10 06:58:15;;;;;;;30.55;13.98;;;;;;;7.69;100.00;102470.19;4988406;28;20062;-75
2021/11/10 07:00:43;;;;;;;32.10;13.60;;;;;;;7.69;100.00;102474.63;4993729;28;20057;-75
2021/11/10 07:03:13;;;;;;;35.00;13.55;;;;;;;7.66;100.00;102473.72;4992678;28;20050;-76
2021/11/10 07:05:42;;;;;;;28.85;13.25;;;;;;;7.70;100.00;102484.38;4994576;28;20053;-75
2021/11/10 07:08:17;;;;;;;26.98;13.10;;;;;;;7.65;100.00;102479.91;4998493;28;20054;-68
2021/11/10 07:10:46;;;;;;;28.00;12.88;;;;;;;7.70;100.00;102482.59;4991183;28;20181;-68
2021/11/10 07:13:14;;;;;;;30.10;13.38;;;;;;;7.69;100.00;102486.13;4999449;28;20058;-70
2021/11/10 07:15:43;;;;;;;29.50;13.68;;;;;;;7.70;100.00;102493.22;4996957;28;20041;-68
2021/11/10 07:18:12;;;;;;;36.85;14.90;;;;;;;7.67;100.00;102510.03;4999245;28;20069;-69
2021/11/10 07:20:40;;;;;;;29.27;12.77;;;;;;;7.69;100.00;102502.06;4995836;28;20049;-68
2021/11/10 07:23:09;;;;;;;35.50;15.05;;;;;;;7.70;100.00;102516.25;4997995;28;20585;-69
2021/11/10 07:25:38;;;;;;;32.15;13.82;;;;;;;7.67;100.00;102520.66;4995766;28;20140;-69
2021/11/10 07:28:07;;;;;;;34.78;13.75;;;;;;;7.67;100.00;102528.63;4995574;28;20127;-69
2021/11/10 07:30:37;;;;;;;27.80;13.73;;;;;;;7.69;100.00;102517.13;4999463;28;20057;-70
2021/11/10 07:33:06;;;;;;;33.60;13.65;;;;;;;7.69;100.00;102509.16;4997920;28;20104;-71
2021/11/10 07:35:35;;;;;;;40.72;14.48;;;;;;;7.73;100.00;102497.66;5001563;28;20095;-70
2021/11/10 07:38:04;;;;;;;39.08;14.05;;;;;;;7.67;100.00;102490.53;4994561;28;20131;-68
2021/11/10 07:40:32;;;;;;;33.40;13.75;;;;;;;7.71;100.00;102491.44;4999318;28;20051;-70
2021/11/10 07:43:01;;;;;;;33.50;14.10;;;;;;;7.74;100.00;102483.50;4994317;28;20593;-68
2021/11/10 07:45:34;;;;;;;35.17;14.32;;;;;;;7.73;100.00;102466.69;4999400;28;20133;-71
2021/11/10 07:48:02;;;;;;;35.15;14.38;;;;;;;7.79;100.00;102457.84;4995450;28;20057;-75
2021/11/10 07:50:31;;;;;;;35.28;13.75;;;;;;;7.78;100.00;102448.09;4998161;28;20120;-78
2021/11/10 07:53:00;;;;;;;34.70;14.50;;;;;;;7.78;100.00;102449.00;4994041;28;20100;-78
2021/11/10 07:55:28;;;;;;;36.97;14.60;;;;;;;7.86;100.00;102454.31;4999322;28;20060;-76
2021/11/10 07:57:56;;;;;;;36.63;14.90;;;;;;;7.87;100.00;102469.41;4995302;28;20131;-76
2021/11/10 08:00:37;;;;;;;29.63;14.82;;;;;;;7.87;100.00;102498.66;4998612;28;20386;-76
2021/11/10 08:03:06;;;;;;;35.25;15.10;;;;;;;7.80;100.00;102513.66;4994782;28;20497;-76
2021/11/10 08:05:35;;;;;;;36.20;14.43;;;;;;;7.85;100.00;102524.34;4994666;28;20060;-77
2021/11/10 08:08:03;;;;;;;34.10;15.98;;;;;;;7.85;100.00;102525.22;4999841;28;20186;-76
2021/11/10 08:10:53;;;;;;;33.78;14.25;;;;;;;7.88;100.00;102519.00;4997535;28;20782;-69
2021/11/10 08:13:21;;;;;;;32.08;14.30;;;;;;;7.95;100.00;102506.66;4998682;28;20092;-69
2021/11/10 08:15:52;;;;;;;36.70;15.23;;;;;;;7.95;100.00;102488.03;4993974;28;20417;-69
2021/11/10 08:18:20;;;;;;;35.42;14.00;;;;;;;7.97;100.00;102492.50;4995954;28;20076;-69
2021/11/10 08:20:48;;;;;;;32.33;13.77;;;;;;;8.01;100.00;102498.72;4997325;28;20494;-69
2021/11/10 08:23:20;;;;;;;33.58;13.65;;;;;;;8.09;100.00;102496.06;4996416;28;20134;-69
2021/11/10 08:25:49;;;;;;;30.33;12.68;;;;;;;8.13;100.00;102481.94;4999429;28;20046;-70
2021/11/10 08:28:18;;;;;;;33.17;12.98;;;;;;;8.12;100.00;102482.81;4994550;28;20196;-69
2021/11/10 08:30:46;;;;;;;31.17;13.93;;;;;;;8.17;100.00;102492.59;4999385;28;20049;-70
2021/11/10 08:33:17;;;;;;;29.75;13.10;;;;;;;8.15;100.00;102491.69;4991236;28;20053;-69
2021/11/10 08:35:46;;;;;;;32.65;13.93;;;;;;;8.15;99.62;102497.00;4998242;28;20052;-69
2021/11/10 08:38:15;;;;;;;32.25;13.35;;;;;;;8.17;99.14;102491.69;4993358;28;20046;-69
2021/11/10 08:40:44;;;;;;;30.70;14.20;;;;;;;8.22;99.76;102493.50;4993906;28;20050;-69
2021/11/10 08:43:12;;;;;;;31.85;13.15;;;;;;;8.19;98.23;102505.91;4993806;28;20045;-69
2021/11/10 08:45:44;;;;;;;28.10;13.82;;;;;;;8.26;98.04;102496.16;4993835;28;20311;-68
2021/11/10 08:48:13;;;;;;;31.38;12.23;;;;;;;8.28;96.84;102489.97;4991465;28;20137;-68
2021/11/10 08:50:45;;;;;;;30.60;15.52;;;;;;;8.31;96.37;102486.41;4996814;28;20141;-68
2021/11/10 08:53:19;;;;;;;32.85;13.73;;;;;;;8.25;95.88;102489.06;4993278;28;20056;-68
2021/11/10 08:55:46;;;;;;;;;;;;;;;8.26;94.99;102489.09;4992059;28;20383;-75
2021/11/10 08:58:15;;;;;;;30.25;14.13;;;;;;;8.28;95.28;102491.75;4997473;28;20297;-75
2021/11/10 09:00:44;;;;;;;38.17;14.15;;;;;;;8.29;94.27;102486.44;4994240;28;20076;-76
2021/11/10 09:03:12;;;;;;;34.38;13.73;;;;;;;8.30;94.81;102488.19;4998341;28;20064;-76
2021/11/10 09:05:40;;;;;;;38.60;14.25;;;;;;;8.29;93.24;102499.75;4994766;28;20441;-75
2021/11/10 09:08:09;;;;;;;35.28;15.38;;;;;;;8.33;93.33;102500.63;4996078;28;20041;-75
2021/11/10 09:10:38;;;;;;;41.53;15.68;;;;;;;8.35;93.52;102502.41;4996869;28;20049;-76
2021/11/10 09:13:06;;;;;;;47.72;14.65;;;;;;;8.41;93.19;102501.53;4999752;28;20584;-75
2021/11/10 09:15:35;;;;;;;40.95;14.90;;;;;;;8.41;92.80;102498.88;4997628;28;20147;-75
2021/11/10 09:18:06;;;;;;;32.60;14.02;;;;;;;8.50;92.71;102493.63;4998928;28;20453;-75
2021/11/10 09:20:37;;;;;;;32.05;13.98;;;;;;;8.62;92.50;102491.91;4999405;28;20045;-68
2021/11/10 09:23:10;;;;;;;33.63;13.88;;;;;;;8.71;92.78;102491.91;4994487;28;20136;-68
2021/11/10 09:25:40;;;;;;;33.35;14.40;;;;;;;8.76;91.40;102491.00;4998741;28;20050;-69
2021/11/10 09:28:16;;;;;;;36.33;13.75;;;;;;;8.87;91.61;102483.06;4997306;28;20556;-69
2021/11/10 09:30:50;;;;;;;26.73;12.90;;;;;;;8.90;91.52;102487.50;5000329;28;20088;-68
2021/11/10 09:33:22;;;;;;;31.08;13.85;;;;;;;8.91;91.06;102487.50;4994485;28;20050;-75
2021/11/10 09:35:51;;;;;;;31.30;13.80;;;;;;;8.95;90.64;102485.72;4995908;28;20060;-74
2021/11/10 09:38:22;;;;;;;36.47;14.75;;;;;;;9.02;90.12;102481.28;5002508;28;20951;-75
2021/11/10 09:40:53;;;;;;;38.58;13.52;;;;;;;9.14;90.35;102483.94;4999320;28;20069;-75
2021/11/10 09:43:21;;;;;;;28.25;13.82;;;;;;;9.16;90.45;102492.84;4999820;28;20050;-75
2021/11/10 09:45:49;;;;;;;31.10;14.13;;;;;;;9.26;90.48;102494.63;4995221;28;20129;-76
2021/11/10 09:48:17;;;;;;;30.98;13.85;;;;;;;9.40;90.88;102510.59;4999312;28;20187;-76
2021/11/10 09:50:48;;;;;;;28.45;13.43;;;;;;;9.42;90.17;102510.59;4997889;28;20133;-75
2021/11/10 09:53:16;;;;;;;27.10;12.20;;;;;;;9.42;89.54;102495.50;5000142;28;20483;-76
2021/11/10 09:55:46;;;;;;;36.38;15.35;;;;;;;9.30;88.91;102487.50;4994788;28;20490;-75
2021/11/10 09:58:16;;;;;;;33.70;12.85;;;;;;;9.35;89.52;102489.28;4999823;28;20053;-75
2021/11/10 10:00:47;;;;;;;29.60;13.50;;;;;;;9.30;87.79;102491.06;4996877;28;20495;-76
2021/11/10 10:03:15;;;;;;;30.58;13.57;;;;;;;9.37;87.92;102488.41;5001568;28;20050;-75
2021/11/10 10:05:45;;;;;;;33.35;14.25;;;;;;;9.53;88.63;102483.06;4996272;28;20145;-76
2021/11/10 10:08:15;;;;;;;30.77;13.00;;;;;;;9.51;87.14;102483.94;5001321;28;20042;-76
2021/11/10 10:10:47;;;;;;;31.20;12.98;;;;;;;9.61;87.29;102487.47;4994146;28;20049;-76
2021/11/10 10:13:16;;;;;;;26.05;11.32;;;;;;;9.52;86.00;102483.06;4996025;28;20066;-70
2021/11/10 10:15:56;;;;;;;28.25;12.40;;;;;;;9.51;86.07;102489.25;4999074;28;20056;-70
2021/11/10 10:18:26;;;;;;;27.13;12.52;;;;;;;9.70;87.63;102493.69;4994144;28;20388;-69
2021/11/10 10:20:57;;;;;;;26.25;12.27;;;;;;;9.61;86.06;102496.34;4997452;28;20060;-69
2021/11/10 10:23:29;;;;;;;22.23;11.68;;;;;;;9.63;85.62;102507.88;4995172;28;20324;-70
2021/11/10 10:26:07;;;;;;;28.27;11.75;;;;;;;9.80;86.49;102504.31;4997142;28;20049;-69
2021/11/10 10:28:41;;;;;;;24.30;10.88;;;;;;;9.77;85.10;102494.53;5002568;28;20143;-68
2021/11/10 10:31:12;;;;;;;29.60;12.48;;;;;;;9.87;85.09;102501.59;4995440;28;20057;-69
2021/11/10 10:33:43;;;;;;;27.02;11.15;;;;;;;10.00;86.15;102507.81;5000469;28;20050;-68
2021/11/10 10:36:14;;;;;;;23.77;10.85;;;;;;;9.96;85.14;102503.38;4995845;28;20096;-69
2021/11/10 10:38:47;;;;;;;18.95;9.93;;;;;;;10.04;84.88;102506.00;4998828;28;20505;-69
2021/11/10 10:41:21;;;;;;;23.35;11.35;;;;;;;10.09;85.21;102504.22;4995389;28;20058;-70
2021/11/10 10:43:53;;;;;;;30.23;11.20;;;;;;;10.12;85.07;102498.00;4999073;28;20115;-69
2021/11/10 10:46:28;;;;;;;26.73;10.90;;;;;;;10.21;84.38;102498.84;4996344;28;20117;-69
2021/11/10 10:49:12;;;;;;;24.45;10.15;;;;;;;10.28;84.56;102499.69;4995437;28;20042;-69
2021/11/10 10:51:42;;;;;;;21.63;10.45;;;;;;;10.33;84.59;102507.72;4998835;28;20053;-70
2021/11/10 10:54:11;;;;;;;30.92;10.35;;;;;;;10.36;84.34;102503.25;4990833;28;20065;-69
2021/11/10 10:56:49;;;;;;;25.20;10.90;;;;;;;10.24;82.74;102501.50;4998900;28;20490;-72
2021/11/10 10:59:17;;;;;;;22.75;10.07;;;;;;;10.38;83.47;102488.13;4995892;28;20061;-70
2021/11/10 11:01:53;;;;;;;20.95;10.05;;;;;;;10.38;83.57;102485.44;5000339;28;20405;-69
2021/11/10 11:04:27;;;;;;;26.77;10.00;;;;;;;10.39;83.79;102483.69;4994430;28;20477;-71
2021/11/10 11:07:01;;;;;;;25.75;9.50;;;;;;;10.41;83.44;102488.09;4996557;28;21006;-69
2021/11/10 11:09:33;;;;;;;22.40;8.98;;;;;;;10.53;83.22;102489.81;4994402;28;20479;-69
2021/11/10 11:12:11;;;;;;;22.52;9.65;;;;;;;10.45;82.77;102488.97;4998238;28;20470;-71
2021/11/10 11:14:45;;;;;;;23.13;9.48;;;;;;;10.55;82.87;102489.81;4995629;28;20072;-69
2021/11/10 11:17:26;;;;;;;29.50;10.18;;;;;;;10.67;83.24;102479.06;4992479;28;20994;-69
2021/11/10 11:19:57;;;;;;;22.80;10.73;;;;;;;10.75;83.88;102482.56;4996298;28;20072;-69
2021/11/10 11:22:27;;;;;;;19.05;9.85;;;;;;;10.78;82.62;102487.03;4995923;28;20080;-68